ADDS TAF Board (Experimental) INFO Settings
IDs: Format: Expanded Condensed

KPDX - Portland Intl Arpt, OR, US

Issued at 2328 UTC 28 Sep 2016
Updated at 2354 UTC 28 Sep 2016
Time2253Z 29/00Z 29/01Z 29/02Z 29/03Z 29/04Z 29/05Z 29/06Z 29/07Z 29/08Z 29/09Z 29/10Z 29/11Z 29/12Z
Type OBS PRVL PRVL PRVL PRVL PRVL PRVL PRVL PRVL PRVL PRVL PRVL PRVL PRVL
VIS 10 >6 >6 >6 >6 >6 >6 >6 >6 >6 >6 >6 >6 >6
CIG -- -- -- -- -- -- -- -- -- -- -- -- -- --
Cover FEW SKC SKC SKC SKC SKC SKC SKC SKC SKC SKC SKC SKC SKC
FltCat VFR VFR VFR VFR VFR VFR VFR VFR VFR VFR VFR VFR VFR VFR
WX -- -- -- -- -- -- -- -- -- -- -- -- -- --
WDir 320 320 320 320 320 320 320 320 320 320 320 320 320 320
WSpd 4 6 6 6 6 6 6 6 6 6 6 6 6 6
WGst -- -- -- -- -- -- -- -- -- -- -- -- -- --
R03/21
XWnd 4 6 6 6 6 6 6 6 6 6 6 6 6 6
HWnd 0 1 1 1 1 1 1 1 1 1 1 1 1 1
R10/28
XWnd 1 2 2 2 2 2 2 2 2 2 2 2 2 2
HWnd -4 -6 -6 -6 -6 -6 -6 -6 -6 -6 -6 -6 -6 -6

Raw TAF
KPDX 282328Z 2900/2924 32006KT P6SM SKC
  FM291330 31005KT P6SM FEW018
  FM291700 29006KT P6SM SCT150


Raw METAR
KPDX 282253Z 32004KT 10SM FEW080 23/09 A2998 RMK AO2 SLP153 T02330094
KPDX 282153Z 28005KT 10SM CLR 22/09 A3000 RMK AO2 SLP157 T02220094
KPDX 282053Z 31005KT 10SM CLR 21/09 A3001 RMK AO2 SLP163 T02110089 58016

METAR Board
Radar Display
Forecast Discussion

TAF Board Legend

Potential Impact
Threat None Slight Moderate High
Visibility (sm) ≥5.1 5.1>X≥3 3>X≥1 <1
Ceiling (100 ft) ≥30.1 30.1>X≥10 10>X≥5 <5
Wind Speed (kt) <10 10≤X<20 20≤X<30 ≥30
Wind Gust (kt) <15 15≤X<25 25≤X<35 ≥35
Weather No Wx Reported VCTS,-TS,-FZRA,SN TS,FZRA +TS,+FZRA,+SN